createdAt,value
2022-10-11T01:15:44.687Z,56.60
2022-10-11T02:46:42.679Z,63.20
2022-10-11T09:17:56.201Z,63.40
2022-10-11T09:28:24.795Z,63.30
2022-10-11T09:38:51.683Z,63.40
2022-10-11T09:49:06.013Z,63.10
2022-10-11T10:00:06.684Z,63.10
2022-10-11T10:10:37.427Z,62.80
2022-10-11T10:21:00.209Z,62.60
2022-10-11T10:31:30.588Z,62.60
2022-10-11T10:41:43.454Z,62.70
2022-10-11T10:52:15.607Z,62.00
2022-10-11T11:02:41.751Z,62.10
2022-10-11T11:12:54.367Z,61.70
2022-10-11T11:23:11.840Z,61.80
2022-10-11T11:33:29.432Z,62.10
2022-10-11T11:43:44.538Z,62.10
2022-10-11T11:54:07.430Z,61.90
2022-10-11T12:04:29.604Z,62.00
2022-10-11T12:14:43.165Z,61.90
2022-10-11T12:24:59.265Z,62.40
2022-10-11T12:35:45.168Z,61.60
2022-10-11T12:45:57.220Z,61.60
2022-10-11T12:56:10.079Z,61.10
2022-10-11T13:06:25.985Z,60.80
2022-10-11T13:16:49.486Z,60.80
2022-10-11T13:26:59.887Z,60.60
2022-10-11T13:37:07.760Z,60.50
2022-10-11T13:47:18.677Z,60.60
2022-10-11T13:57:35.627Z,60.10
2022-10-11T14:07:45.009Z,60.00
2022-10-11T14:17:52.163Z,59.90
2022-10-11T14:28:18.654Z,59.90
2022-10-11T14:38:58.668Z,59.40
2022-10-11T14:49:14.055Z,59.20
2022-10-11T14:59:24.297Z,58.80
2022-10-11T15:09:51.970Z,58.60
2022-10-11T15:20:06.135Z,58.80
2022-10-11T15:30:21.649Z,58.90
2022-10-11T15:40:36.333Z,58.80
2022-10-11T15:50:45.316Z,56.70
2022-10-11T16:00:55.037Z,56.30
2022-10-11T16:11:04.566Z,55.50
2022-10-11T16:21:13.711Z,55.50
2022-10-11T16:31:22.727Z,56.00
2022-10-11T16:41:29.883Z,56.90
2022-10-11T16:51:38.453Z,56.80
2022-10-11T17:01:46.040Z,56.60
2022-10-11T17:11:55.514Z,57.10
2022-10-11T17:22:02.684Z,57.20
2022-10-11T17:32:11.569Z,57.50
2022-10-11T17:42:18.537Z,57.70
2022-10-11T17:52:27.227Z,57.70
2022-10-11T18:02:34.357Z,57.70
2022-10-11T18:12:43.625Z,58.00
2022-10-11T18:22:51.976Z,57.70
2022-10-11T18:33:00.933Z,57.80
2022-10-11T18:43:08.019Z,57.70
2022-10-11T18:53:16.622Z,58.10
2022-10-11T19:03:23.676Z,57.80
2022-10-11T19:13:34.102Z,58.60
2022-10-11T19:23:42.993Z,59.50
2022-10-11T19:33:51.801Z,60.00
2022-10-11T19:43:59.966Z,61.20
2022-10-11T19:54:15.628Z,61.10
2022-10-11T20:14:52.357Z,60.20
2022-10-11T20:24:59.412Z,60.20
2022-10-11T20:35:10.145Z,60.60
2022-10-11T20:45:17.256Z,60.60
2022-10-11T20:55:26.019Z,60.40
2022-10-11T21:05:33.288Z,60.00
2022-10-11T21:15:41.845Z,59.80
2022-10-11T21:25:48.796Z,59.80
2022-10-11T21:35:58.509Z,59.30
2022-10-11T21:46:12.787Z,59.00
2022-10-11T21:56:21.936Z,58.50
2022-10-11T22:06:29.451Z,58.10
2022-10-11T22:16:38.749Z,58.10
2022-10-11T22:26:45.772Z,58.60
2022-10-11T22:36:54.585Z,58.20
2022-10-11T22:47:01.495Z,58.10
2022-10-11T22:57:10.278Z,58.20
2022-10-11T23:07:18.062Z,58.10
2022-10-11T23:17:26.669Z,49.30
2022-10-11T23:27:34.216Z,39.70
2022-10-11T23:37:42.952Z,37.40
2022-10-11T23:47:50.092Z,37.10
2022-10-11T23:57:58.797Z,36.30
